Time;durP1;ratioP1;P1;durP2;ratioP2;P2;SDS_P1;SDS_P2;PMS_P1;PMS_P2;Temp;Humidity;BMP_temperature;BMP_pressure;BME280_temperature;BME280_humidity;BME280_pressure;Samples;Min_cycle;Max_cycle;Signal;HPM_P1;HPM_P2
2022/08/04 00:00:14;;;;;;;18.65;9.80;;;;;;;19.17;93.40;101133.41;5096265;28;20372;-47
2022/08/04 00:02:52;;;;;;;20.83;10.95;;;;;;;19.13;93.70;101130.78;5095534;28;20032;-47
2022/08/04 00:05:29;;;;;;;15.00;10.48;;;;;;;19.15;93.54;101126.44;5096635;28;20032;-45
2022/08/04 00:08:13;;;;;;;16.92;9.15;;;;;;;19.23;92.61;101116.84;5096492;28;20477;-47
2022/08/04 00:10:42;;;;;;;19.63;10.27;;;;;;;19.21;94.19;101118.56;5096120;28;20032;-48
2022/08/04 00:13:08;;;;;;;17.08;10.18;;;;;;;19.16;93.01;101121.22;5096065;28;20028;-48
2022/08/04 00:15:34;;;;;;;17.63;9.57;;;;;;;19.15;92.06;101113.38;5095517;28;20016;-47
2022/08/04 00:18:03;;;;;;;17.30;9.48;;;;;;;19.17;92.80;101119.44;5096121;28;20031;-47
2022/08/04 00:20:31;;;;;;;13.60;9.75;;;;;;;19.11;92.69;101117.72;5095935;28;20031;-46
2022/08/04 00:22:59;;;;;;;17.60;9.77;;;;;;;19.11;93.14;101116.84;5095463;28;20024;-46
2022/08/04 00:25:24;;;;;;;17.33;10.35;;;;;;;18.99;93.15;101110.78;5095862;28;20032;-47
2022/08/04 00:27:50;;;;;;;17.73;11.48;;;;;;;19.01;92.87;101114.25;5095826;28;20165;-43
2022/08/04 00:30:16;;;;;;;17.55;11.10;;;;;;;18.97;93.38;101115.13;5095289;28;20061;-46
2022/08/04 00:32:41;;;;;;;19.05;12.13;;;;;;;18.98;93.05;101113.38;5095728;28;20047;-45
2022/08/04 00:35:13;;;;;;;18.42;10.77;;;;;;;18.91;93.03;101109.91;5095706;28;20494;-48
2022/08/04 00:37:39;;;;;;;22.98;10.98;;;;;;;18.89;93.20;101101.19;5094909;28;20103;-43
2022/08/04 00:40:44;;;;;;;16.20;11.52;;;;;;;18.92;92.64;101102.06;5095586;28;20115;-45
2022/08/04 00:43:32;;;;;;;18.88;11.73;;;;;;;18.88;93.31;101089.84;5064584;28;20055;-46
2022/08/04 00:46:34;;;;;;;17.38;10.95;;;;;;;18.87;92.89;101092.47;5095540;28;20024;-46
2022/08/04 00:49:16;;;;;;;22.63;12.45;;;;;;;18.84;93.79;101093.34;5095681;28;20089;-45
2022/08/04 00:51:48;;;;;;;19.85;12.00;;;;;;;18.75;94.64;101093.34;5094741;28;20036;-48
2022/08/04 00:54:24;;;;;;;19.50;12.48;;;;;;;18.72;94.25;101088.13;5095594;28;20107;-46
2022/08/04 00:57:09;;;;;;;18.63;11.95;;;;;;;18.71;94.00;101092.47;5095294;28;20099;-47
2022/08/04 00:59:50;;;;;;;16.98;11.32;;;;;;;18.65;94.48;101086.41;5094636;28;20103;-46
2022/08/04 01:02:28;;;;;;;16.38;11.63;;;;;;;18.64;93.81;101088.13;5095474;28;20035;-47
2022/08/04 01:05:04;;;;;;;16.60;10.70;;;;;;;18.60;93.48;101086.38;5094499;28;20031;-47
2022/08/04 01:07:48;;;;;;;19.33;11.55;;;;;;;18.63;93.49;101086.41;5095002;28;20106;-47
2022/08/04 01:10:22;;;;;;;20.90;11.90;;;;;;;18.66;93.95;101081.16;5095332;28;20028;-47
2022/08/04 01:13:05;;;;;;;17.30;11.18;;;;;;;18.58;94.32;101080.31;5094280;28;20028;-47
2022/08/04 01:15:42;;;;;;;18.67;10.98;;;;;;;18.66;93.78;101081.16;5094991;28;20031;-48
2022/08/04 01:18:07;;;;;;;;;;;;;;;18.71;90.49;101071.59;5095442;28;20030;-47
2022/08/04 01:20:45;;;;;;;18.40;10.73;;;;;;;18.59;93.67;101071.59;5094215;28;19992;-46
2022/08/04 01:23:16;;;;;;;;;;;;;;;18.69;90.00;101075.94;5095397;28;20031;-49
2022/08/04 01:26:12;;;;;;;14.43;10.77;;;;;;;18.62;92.60;101070.72;5094015;28;19912;-46
2022/08/04 01:28:59;;;;;;;20.30;10.77;;;;;;;18.64;93.22;101067.22;5094643;28;20494;-48
2022/08/04 01:31:46;;;;;;;21.33;10.18;;;;;;;18.57;94.25;101070.72;5094521;28;20428;-47
2022/08/04 01:34:12;;;;;;;17.25;10.40;;;;;;;18.56;93.90;101055.94;5093916;28;20070;-46
2022/08/04 01:36:56;;;;;;;15.38;9.45;;;;;;;18.55;93.50;101060.28;5094399;28;20032;-47
2022/08/04 01:39:40;;;;;;;19.30;9.60;;;;;;;18.56;93.08;101058.53;5094536;28;20395;-48
2022/08/04 01:42:06;;;;;;;20.70;10.00;;;;;;;18.60;93.33;101052.44;5094426;28;20028;-47
2022/08/04 01:44:35;;;;;;;20.85;9.30;;;;;;;18.64;93.25;101051.56;5094455;28;20035;-47
2022/08/04 01:47:01;;;;;;;18.27;8.27;;;;;;;18.74;92.83;101050.69;5093510;28;20035;-48
2022/08/04 01:49:31;;;;;;;16.33;9.35;;;;;;;18.70;92.16;101054.19;5094190;28;20028;-46
2022/08/04 01:51:57;;;;;;;15.52;8.20;;;;;;;18.64;91.86;101054.19;5094403;28;20035;-45
2022/08/04 01:54:24;;;;;;;11.77;7.88;;;;;;;18.61;91.60;101051.59;5093673;28;20085;-47
2022/08/04 01:56:50;;;;;;;15.60;8.30;;;;;;;18.66;91.49;101055.06;5094208;28;20016;-48
2022/08/04 01:59:18;;;;;;;16.70;7.97;;;;;;;18.72;91.90;101056.78;5093601;28;20032;-43
2022/08/04 02:01:44;;;;;;;21.35;8.75;;;;;;;18.73;90.90;101051.59;5093269;28;20384;-47
2022/08/04 02:04:18;;;;;;;20.50;8.25;;;;;;;18.79;90.69;101052.44;5094159;28;20016;-46
2022/08/04 02:06:58;;;;;;;18.98;8.18;;;;;;;18.89;90.39;101051.56;5093958;28;20518;-46
2022/08/04 02:09:29;;;;;;;16.70;8.18;;;;;;;18.97;89.76;101052.44;5093009;28;20353;-44
2022/08/04 02:12:06;;;;;;;18.05;7.22;;;;;;;19.15;87.96;101050.69;5093803;28;20028;-48
2022/08/04 02:14:44;;;;;;;24.80;8.05;;;;;;;19.15;88.19;101040.22;5094037;28;20016;-47
2022/08/04 02:17:35;;;;;;;20.60;7.53;;;;;;;19.30;86.87;101039.28;5093844;28;20016;-46
2022/08/04 02:20:07;;;;;;;19.70;7.55;;;;;;;19.25;86.61;101032.34;5093704;28;20032;-47
2022/08/04 02:22:46;;;;;;;19.77;7.65;;;;;;;19.29;86.19;101029.72;5092892;28;20028;-46
2022/08/04 02:25:17;;;;;;;17.40;6.90;;;;;;;19.34;85.63;101030.56;5093872;28;20049;-47
2022/08/04 02:28:03;;;;;;;20.23;7.07;;;;;;;19.39;85.53;101027.06;5093626;28;20053;-47
2022/08/04 02:30:42;;;;;;;19.20;7.55;;;;;;;19.46;84.39;101034.88;5092746;28;20468;-47
2022/08/04 02:33:12;;;;;;;20.67;7.38;;;;;;;19.60;83.49;101026.97;5093748;28;20045;-45
2022/08/04 02:35:39;;;;;;;20.33;7.13;;;;;;;19.70;82.63;101024.31;5093393;28;20348;-47
2022/08/04 02:38:22;;;;;;;16.17;7.50;;;;;;;19.74;82.42;101026.03;5092721;28;20396;-47
2022/08/04 02:40:50;;;;;;;17.77;6.75;;;;;;;19.89;80.88;101021.59;5093324;28;20043;-45
2022/08/04 02:43:18;;;;;;;20.92;6.53;;;;;;;19.96;80.63;101019.81;5092469;28;20083;-47
2022/08/04 02:45:46;;;;;;;18.55;6.88;;;;;;;19.91;81.55;101017.25;5093406;28;20070;-46
2022/08/04 02:48:13;;;;;;;13.68;6.05;;;;;;;19.96;80.30;101014.59;5093369;28;20028;-46
2022/08/04 02:50:40;;;;;;;16.95;7.00;;;;;;;19.96;79.88;101006.75;5092532;28;20027;-44
2022/08/04 02:53:11;;;;;;;14.25;5.43;;;;;;;20.03;79.68;101011.91;5093164;28;20027;-46
2022/08/04 02:55:40;;;;;;;16.23;5.72;;;;;;;19.92;80.54;101012.88;5093214;28;20055;-43
2022/08/04 02:58:07;;;;;;;16.80;5.32;;;;;;;19.96;79.58;101009.34;5092648;28;20039;-48
2022/08/04 03:00:34;;;;;;;;;;;;;;;19.96;80.09;101010.25;5093533;28;20032;-45
2022/08/04 03:03:15;;;;;;;23.48;5.43;;;;;;;20.06;78.61;101001.44;5093218;28;19912;-47
2022/08/04 03:05:53;;;;;;;14.80;5.80;;;;;;;20.09;79.11;100999.66;5092399;28;20134;-46
2022/08/04 03:08:36;;;;;;;17.38;5.88;;;;;;;19.99;79.11;100998.88;5093122;28;20028;-43
2022/08/04 03:11:31;;;;;;;16.83;5.45;;;;;;;19.98;79.14;100998.00;5091716;28;20028;-44
2022/08/04 03:14:10;;;;;;;14.50;5.70;;;;;;;19.78;79.75;100994.63;5056498;28;20052;-46
2022/08/04 03:16:57;;;;;;;15.98;5.85;;;;;;;19.70;80.01;101000.78;5092888;28;20024;-43
2022/08/04 03:20:04;;;;;;;15.33;5.40;;;;;;;19.50;80.74;101002.63;5092153;28;20391;-50
2022/08/04 03:23:02;;;;;;;13.15;5.47;;;;;;;19.30;81.91;101014.03;5082020;28;20040;-47
2022/08/04 03:26:01;;;;;;;14.60;5.68;;;;;;;19.06;83.07;101023.69;5092023;28;20387;-44
2022/08/04 03:28:42;;;;;;;14.25;5.75;;;;;;;18.73;85.25;101027.19;5092897;28;20032;-45
2022/08/04 03:31:30;;;;;;;20.98;6.40;;;;;;;18.78;85.18;101024.59;5092775;28;20065;-43
2022/08/04 03:34:19;;;;;;;20.08;7.28;;;;;;;18.81;84.32;101019.34;5091862;28;20384;-47
2022/08/04 03:37:09;;;;;;;15.90;6.22;;;;;;;18.77;85.54;101015.88;5092683;28;20467;-47
2022/08/04 03:39:48;;;;;;;12.55;6.25;;;;;;;18.58;86.79;101009.84;5091785;28;20442;-48
2022/08/04 03:42:48;;;;;;;17.40;6.43;;;;;;;18.51;86.73;101013.31;5092768;28;20055;-47
2022/08/04 03:45:34;;;;;;;14.95;6.65;;;;;;;18.40;87.98;101013.31;5092680;28;20070;-44
2022/08/04 03:48:24;;;;;;;14.30;6.55;;;;;;;18.20;88.37;101018.53;5091855;28;20521;-43
2022/08/04 03:54:36;;;;;;;18.02;7.07;;;;;;;18.19;88.21;101016.78;5091888;28;20035;-46
2022/08/04 03:57:31;;;;;;;19.05;6.60;;;;;;;18.34;88.22;101024.59;5092423;28;20382;-46
2022/08/04 04:00:05;;;;;;;16.50;7.05;;;;;;;18.23;89.48;101032.44;5092349;28;20085;-45
2022/08/04 04:02:43;;;;;;;18.73;7.60;;;;;;;18.30;89.13;101038.53;5091482;28;20020;-47
2022/08/04 04:05:24;;;;;;;17.35;7.00;;;;;;;18.28;89.11;101040.25;5092624;28;20028;-44
2022/08/04 04:08:28;;;;;;;16.30;7.68;;;;;;;18.30;88.90;101027.25;5091579;28;20395;-42
2022/08/04 04:11:08;;;;;;;16.63;6.85;;;;;;;18.20;89.48;101031.56;5020195;28;20048;-47
2022/08/04 04:14:02;;;;;;;23.63;8.38;;;;;;;18.44;88.14;101043.75;5092358;28;20031;-43
2022/08/04 04:16:55;;;;;;;18.02;8.70;;;;;;;18.43;88.63;101040.25;5091583;28;20119;-44
2022/08/04 04:19:58;;;;;;;18.50;8.25;;;;;;;18.46;88.24;101043.75;5092585;28;20119;-48
2022/08/04 04:22:55;;;;;;;21.38;8.40;;;;;;;18.31;89.82;101045.50;5094667;28;20031;-43
2022/08/04 04:25:41;;;;;;;;;;;;;;;18.45;86.97;101040.28;5096377;28;20463;-42
2022/08/04 04:28:34;;;;;;;20.77;7.90;;;;;;;18.38;89.04;101044.59;5095854;28;20448;-44
2022/08/04 04:31:48;;;;;;;17.17;7.70;;;;;;;18.30;89.28;101046.34;5095952;28;20032;-47
2022/08/04 04:34:38;;;;;;;17.30;7.35;;;;;;;18.25;90.88;101045.47;5095797;28;20460;-43
2022/08/04 04:37:33;;;;;;;13.55;7.43;;;;;;;18.18;91.22;101048.94;5095080;28;20028;-43
2022/08/04 04:40:20;;;;;;;17.63;9.15;;;;;;;18.25;90.49;101050.69;5095496;28;20391;-44
2022/08/04 04:42:57;;;;;;;18.08;8.88;;;;;;;18.23;91.91;101048.09;5094804;28;20239;-43
2022/08/04 04:45:42;;;;;;;14.88;7.80;;;;;;;18.29;90.76;101048.97;5095740;28;20020;-47
2022/08/04 04:48:29;;;;;;;15.00;8.57;;;;;;;18.36;91.41;101042.88;5095490;28;20115;-43
2022/08/04 04:51:19;;;;;;;15.70;8.30;;;;;;;18.47;90.82;101040.28;5094905;28;20107;-43
2022/08/04 04:54:10;;;;;;;15.95;8.07;;;;;;;18.57;90.59;101042.03;5095372;28;20027;-47
2022/08/04 04:56:49;;;;;;;21.38;8.55;;;;;;;18.69;91.11;101046.34;5094459;28;20020;-47
2022/08/04 04:59:19;;;;;;;24.23;9.10;;;;;;;18.85;91.09;101049.81;5095575;28;20078;-47
2022/08/04 05:02:06;;;;;;;15.02;8.07;;;;;;;18.97;89.98;101046.38;5095320;28;20036;-43
2022/08/04 05:05:00;;;;;;;18.10;8.73;;;;;;;19.13;89.70;101055.03;5094527;28;20028;-43
2022/08/04 05:08:01;;;;;;;18.65;8.07;;;;;;;19.18;89.70;101067.19;5095378;28;20035;-47
2022/08/04 05:10:52;;;;;;;15.80;8.25;;;;;;;19.22;90.38;101073.28;5091414;28;20058;-47
2022/08/04 05:13:38;;;;;;;20.73;8.40;;;;;;;19.29;91.23;101064.56;5095177;28;20074;-47
2022/08/04 05:16:14;;;;;;;18.70;8.88;;;;;;;19.35;91.14;101061.94;5095017;28;20040;-45
2022/08/04 05:18:44;;;;;;;17.38;8.30;;;;;;;19.42;89.62;101049.72;5094197;28;20020;-46
2022/08/04 05:21:21;;;;;;;17.08;8.57;;;;;;;19.52;89.20;101053.13;5094851;28;20028;-46
2022/08/04 05:23:53;;;;;;;17.02;8.20;;;;;;;19.58;89.65;101048.75;5094741;28;20097;-47
2022/08/04 05:26:24;;;;;;;16.48;8.35;;;;;;;19.67;89.50;101055.69;5094281;28;20038;-43
2022/08/04 05:28:56;;;;;;;20.45;8.32;;;;;;;19.72;90.13;101059.16;5094732;28;20497;-49
2022/08/04 05:31:27;;;;;;;15.82;7.53;;;;;;;19.82;91.64;101064.34;5094825;28;20054;-48
2022/08/04 05:33:59;;;;;;;16.60;7.95;;;;;;;19.95;90.85;101058.19;5092856;28;20038;-46
2022/08/04 05:36:34;;;;;;;19.65;8.52;;;;;;;20.04;90.12;101058.13;5094622;28;20023;-43
2022/08/04 05:39:01;;;;;;;17.08;8.40;;;;;;;20.11;89.06;101058.09;5093904;28;20078;-46
2022/08/04 05:41:28;;;;;;;16.73;9.27;;;;;;;20.25;87.52;101058.88;5094392;28;20475;-47
2022/08/04 05:43:55;;;;;;;17.48;8.52;;;;;;;20.45;88.96;101063.97;5094271;28;20333;-45
2022/08/04 05:46:21;;;;;;;14.68;8.35;;;;;;;20.60;86.72;101055.09;5093757;28;20020;-45
2022/08/04 05:48:47;;;;;;;16.23;9.07;;;;;;;20.68;88.47;101052.41;5094048;28;20054;-45
2022/08/04 05:51:14;;;;;;;17.88;9.73;;;;;;;20.77;87.99;101041.03;5094552;28;20028;-46
2022/08/04 05:53:43;;;;;;;20.10;10.00;;;;;;;20.88;84.82;101039.16;5093541;28;20025;-43
2022/08/04 05:56:10;;;;;;;20.45;9.82;;;;;;;20.98;84.42;101038.19;5094304;28;20031;-48
2022/08/04 05:58:37;;;;;;;23.77;11.43;;;;;;;21.01;83.48;101035.53;5094064;28;20057;-47
2022/08/04 06:01:04;;;;;;;20.20;10.80;;;;;;;21.15;83.61;101037.13;5093328;28;20375;-43
2022/08/04 06:03:30;;;;;;;;;;;;;;;21.27;84.23;101047.47;5094573;28;20024;-43
2022/08/04 06:05:57;;;;;;;19.98;10.35;;;;;;;21.38;84.49;101037.72;5094139;28;20006;-45
2022/08/04 06:08:23;;;;;;;19.52;11.48;;;;;;;21.48;84.84;101043.72;5093306;28;20641;-43
2022/08/04 06:10:50;;;;;;;24.75;11.25;;;;;;;21.58;85.21;101046.28;5093933;28;20092;-43
2022/08/04 06:13:24;;;;;;;21.42;10.98;;;;;;;21.71;84.50;101042.59;5093830;28;20063;-46
2022/08/04 06:15:53;;;;;;;19.40;10.77;;;;;;;21.82;83.35;101045.03;5092956;28;20063;-44
2022/08/04 06:18:18;;;;;;;21.23;10.60;;;;;;;21.89;83.14;101044.09;5093959;28;20032;-46
2022/08/04 06:20:46;;;;;;;22.77;10.45;;;;;;;22.02;82.22;101043.00;5093696;28;20040;-43
2022/08/04 06:23:15;;;;;;;17.92;9.50;;;;;;;22.05;82.39;101042.09;5092976;28;20157;-46
2022/08/04 06:25:49;;;;;;;22.25;11.10;;;;;;;22.20;82.49;101047.09;5093560;28;20376;-44
2022/08/04 06:28:16;;;;;;;19.60;10.65;;;;;;;22.37;82.43;101046.00;5092960;28;20096;-44
2022/08/04 06:30:46;;;;;;;;;;;;;;;22.49;80.06;101043.19;5094058;28;20093;-46
2022/08/04 06:33:23;;;;;;;17.50;10.10;;;;;;;22.46;77.79;101043.22;5093897;28;19951;-45
2022/08/04 06:35:50;;;;;;;21.05;10.40;;;;;;;22.52;77.21;101058.03;5092975;28;20016;-44
2022/08/04 06:38:16;;;;;;;26.80;9.95;;;;;;;22.58;77.90;101057.94;5093726;28;20016;-46
2022/08/04 06:40:42;;;;;;;20.42;9.93;;;;;;;22.73;79.93;101061.19;5093205;28;20032;-45
2022/08/04 06:43:08;;;;;;;19.50;10.50;;;;;;;22.77;80.50;101065.47;5092557;28;20040;-43
2022/08/04 06:45:36;;;;;;;19.55;10.57;;;;;;;22.96;77.32;101069.50;5093341;28;20073;-45
2022/08/04 06:48:04;;;;;;;25.00;10.70;;;;;;;22.99;75.71;101068.59;5093372;28;20089;-44
2022/08/04 06:50:31;;;;;;;21.15;10.55;;;;;;;23.14;76.56;101080.59;5092445;28;20028;-45
2022/08/04 06:52:56;;;;;;;19.80;10.63;;;;;;;23.30;76.88;101074.13;5093212;28;20052;-44
2022/08/04 06:55:23;;;;;;;22.40;11.48;;;;;;;23.43;76.21;101074.75;5093152;28;20044;-48
2022/08/04 06:57:49;;;;;;;22.55;11.02;;;;;;;23.37;74.14;101084.53;5092308;28;20482;-45
2022/08/04 07:00:16;;;;;;;23.95;12.18;;;;;;;23.37;73.97;101077.53;5093113;28;20074;-45
2022/08/04 07:02:45;;;;;;;25.88;11.70;;;;;;;23.46;74.98;101073.81;5093189;28;20107;-48
2022/08/04 07:05:11;;;;;;;66.22;25.60;;;;;;;23.42;74.65;101080.06;5092132;28;20483;-42
2022/08/04 07:07:38;;;;;;;21.45;11.90;;;;;;;23.39;75.32;101074.88;5092916;28;20030;-44
2022/08/04 07:10:04;;;;;;;;;;;;;;;23.57;75.88;101076.25;5093353;28;20498;-46
2022/08/04 07:12:31;;;;;;;21.83;12.15;;;;;;;23.44;76.06;101075.63;5092197;28;19956;-43
2022/08/04 07:14:57;;;;;;;21.65;11.48;;;;;;;23.37;75.90;101081.91;5093094;28;20027;-45
2022/08/04 07:17:23;;;;;;;21.73;11.40;;;;;;;23.24;75.41;101071.66;5092172;28;20455;-46
2022/08/04 07:19:48;;;;;;;19.23;12.50;;;;;;;23.13;75.80;101073.59;5092677;28;20042;-48
2022/08/04 07:22:15;;;;;;;19.92;11.50;;;;;;;23.07;76.25;101076.31;5092794;28;20031;-49
2022/08/04 07:24:41;;;;;;;23.10;11.63;;;;;;;23.03;78.50;101078.13;5092128;28;20372;-49
2022/08/04 07:27:07;;;;;;;20.15;11.18;;;;;;;22.96;78.64;101079.16;5092984;28;20019;-48
2022/08/04 07:29:36;;;;;;;60.17;14.18;;;;;;;22.90;77.51;101090.63;5092785;28;20027;-49
2022/08/04 07:32:03;;;;;;;22.88;11.48;;;;;;;22.78;75.50;101089.09;5092034;28;20071;-50
2022/08/04 07:34:29;;;;;;;24.48;12.38;;;;;;;22.75;76.54;101090.91;5092648;28;20184;-49
2022/08/04 07:36:56;;;;;;;21.73;11.95;;;;;;;22.71;76.11;101089.22;5092621;28;20074;-50
2022/08/04 07:39:23;;;;;;;;;;;;;;;22.86;76.11;101094.22;5092317;28;20463;-45
2022/08/04 07:41:50;;;;;;;21.17;11.60;;;;;;;22.89;77.34;101096.78;5092828;28;19911;-46
2022/08/04 07:44:15;;;;;;;21.13;12.00;;;;;;;23.00;76.41;101092.19;5092594;28;20080;-47
2022/08/04 07:46:44;;;;;;;23.30;11.82;;;;;;;23.12;76.11;101095.50;5091879;28;20062;-48
2022/08/04 07:49:09;;;;;;;18.35;12.20;;;;;;;23.35;76.47;101087.22;5092476;28;20020;-46
2022/08/04 07:51:35;;;;;;;21.20;11.88;;;;;;;23.62;75.83;101092.81;5092420;28;20021;-46
2022/08/04 07:54:03;;;;;;;28.30;12.05;;;;;;;23.93;76.56;101090.41;5091994;28;20055;-46
2022/08/04 07:56:29;;;;;;;26.63;12.88;;;;;;;24.01;73.01;101092.88;5094408;28;20035;-46
2022/08/04 07:58:55;;;;;;;21.17;11.73;;;;;;;23.90;71.70;101095.75;5096347;28;20391;-48
2022/08/04 08:01:24;;;;;;;28.90;12.85;;;;;;;24.00;73.28;101097.28;5095838;28;20463;-49
2022/08/04 08:03:51;;;;;;;20.25;11.45;;;;;;;24.15;73.76;101095.19;5096407;28;20028;-45
2022/08/04 08:06:17;;;;;;;18.65;10.52;;;;;;;24.26;72.62;101098.44;5096322;28;20166;-48
2022/08/04 08:08:42;;;;;;;18.73;11.00;;;;;;;24.37;71.63;101094.69;5095635;28;20430;-45
2022/08/04 08:11:08;;;;;;;20.73;10.75;;;;;;;24.45;70.87;101092.72;5096379;28;20055;-49
2022/08/04 08:13:34;;;;;;;22.15;10.02;;;;;;;24.54;69.52;101113.56;5095475;28;20028;-49
2022/08/04 08:16:00;;;;;;;19.20;9.30;;;;;;;24.59;68.20;101111.69;5096147;28;20464;-49
2022/08/04 08:18:26;;;;;;;19.55;8.82;;;;;;;24.64;68.01;101109.84;5096154;28;20069;-48
2022/08/04 08:20:52;;;;;;;20.98;8.00;;;;;;;24.77;67.24;101114.81;5095175;28;20020;-48
2022/08/04 08:23:17;;;;;;;15.75;7.22;;;;;;;24.94;68.97;101114.38;5096325;28;20471;-48
2022/08/04 08:25:43;;;;;;;15.45;6.65;;;;;;;25.07;66.55;101121.03;5096009;28;20027;-49
2022/08/04 08:28:08;;;;;;;18.00;7.50;;;;;;;25.31;66.78;101116.88;5095526;28;20412;-46
2022/08/04 08:30:35;;;;;;;15.55;6.72;;;;;;;25.53;66.95;101115.47;5095846;28;20475;-46
2022/08/04 08:33:03;;;;;;;17.15;7.15;;;;;;;25.77;65.04;101116.50;5095791;28;20111;-48
2022/08/04 08:35:35;;;;;;;14.00;7.40;;;;;;;25.78;64.04;101123.50;5094924;28;20082;-50
2022/08/04 08:38:04;;;;;;;21.08;7.78;;;;;;;25.84;63.90;101123.31;5095880;28;20048;-48
2022/08/04 08:40:39;;;;;;;16.00;6.88;;;;;;;25.92;63.67;101123.94;5095723;28;20028;-50
2022/08/04 08:43:26;;;;;;;11.77;5.15;;;;;;;25.92;62.25;101120.47;5094765;28;20071;-50
2022/08/04 08:46:29;;;;;;;16.73;5.35;;;;;;;25.87;63.92;101131.16;5095526;28;20024;-50
2022/08/04 08:49:07;;;;;;;13.55;4.43;;;;;;;25.92;59.64;101139.78;5094870;28;20027;-50
2022/08/04 08:51:50;;;;;;;12.02;4.57;;;;;;;26.03;61.10;101141.25;5095353;28;20024;-51
2022/08/04 08:54:43;;;;;;;18.58;4.65;;;;;;;25.99;61.28;101150.19;5095762;28;20035;-48
2022/08/04 08:57:41;;;;;;;11.85;3.60;;;;;;;25.99;62.06;101148.41;5094756;28;20031;-48
2022/08/04 09:00:51;;;;;;;11.30;3.85;;;;;;;26.17;60.10;101139.09;5095288;28;20067;-48
2022/08/04 09:03:37;;;;;;;11.82;3.00;;;;;;;26.44;59.98;101141.75;5085216;28;20072;-50
2022/08/04 09:06:32;;;;;;;13.93;4.10;;;;;;;26.75;58.04;101146.06;5095271;28;20076;-49
2022/08/04 09:09:11;;;;;;;13.10;3.63;;;;;;;26.89;57.19;101142.97;5094224;28;20031;-49
2022/08/04 09:11:47;;;;;;;12.70;3.72;;;;;;;27.04;55.94;101158.31;5094402;28;20110;-46
2022/08/04 09:14:37;;;;;;;12.57;3.40;;;;;;;27.50;57.89;101153.22;5095063;28;20497;-46
2022/08/04 09:17:09;;;;;;;12.13;3.60;;;;;;;27.39;55.96;101163.31;5094251;28;20118;-51
2022/08/04 09:20:11;;;;;;;10.30;3.30;;;;;;;27.49;56.05;101159.44;5094825;28;20539;-49
2022/08/04 09:23:17;;;;;;;12.93;3.55;;;;;;;27.57;55.54;101154.69;5081230;28;20067;-50
2022/08/04 09:26:00;;;;;;;11.18;2.50;;;;;;;27.84;54.10;101153.75;5053281;28;20040;-49
2022/08/04 09:28:30;;;;;;;12.43;2.97;;;;;;;27.90;51.47;101164.06;5094858;28;20028;-50
2022/08/04 09:31:20;;;;;;;8.25;2.80;;;;;;;27.87;53.46;101166.84;5094190;28;20046;-49
2022/08/04 09:33:59;;;;;;;11.88;2.85;;;;;;;27.76;53.08;101170.78;5094614;28;20385;-46
2022/08/04 09:36:38;;;;;;;9.43;2.80;;;;;;;27.85;52.97;101176.63;5094469;28;20471;-49
2022/08/04 09:39:24;;;;;;;15.07;2.80;;;;;;;28.02;52.43;101174.25;5093893;28;20046;-49
2022/08/04 09:41:56;;;;;;;;;;;;;;;28.30;54.76;101178.44;5094891;28;20043;-47
2022/08/04 09:44:51;;;;;;;17.52;2.55;;;;;;;28.33;52.06;101178.34;5094382;28;19916;-49
2022/08/04 09:47:33;;;;;;;11.13;2.50;;;;;;;27.92;51.54;101180.78;5094245;28;20026;-45
2022/08/04 09:50:13;;;;;;;13.82;2.60;;;;;;;27.81;51.44;101194.44;5094376;28;20028;-49
2022/08/04 09:52:51;;;;;;;9.85;2.40;;;;;;;27.77;51.99;101200.75;5093431;28;20048;-48
2022/08/04 09:55:47;;;;;;;20.23;2.72;;;;;;;27.66;52.17;101202.97;5094448;28;20028;-48
2022/08/04 09:58:21;;;;;;;19.23;2.40;;;;;;;27.45;51.83;101202.81;5094309;28;20024;-44
2022/08/04 10:01:02;;;;;;;8.23;2.28;;;;;;;27.37;51.66;101210.09;5093065;28;20542;-45
2022/08/04 10:03:33;;;;;;;6.47;2.00;;;;;;;27.23;52.20;101216.75;5093974;28;20379;-45
2022/08/04 10:06:24;;;;;;;10.15;2.47;;;;;;;27.31;53.20;101212.97;5093300;28;20028;-46
2022/08/04 10:09:00;;;;;;;11.73;2.10;;;;;;;27.03;54.08;101224.50;5094017;28;20028;-48
2022/08/04 10:11:41;;;;;;;11.57;2.53;;;;;;;26.81;55.06;101222.56;5094104;28;20024;-49
2022/08/04 10:14:21;;;;;;;13.77;2.60;;;;;;;26.43;55.39;101224.59;5093257;28;20103;-49
2022/08/04 10:17:01;;;;;;;7.10;2.05;;;;;;;26.09;58.22;101220.34;5093842;28;20127;-49
2022/08/04 10:19:31;;;;;;;10.35;2.53;;;;;;;25.60;58.39;101222.56;5093149;28;20047;-49
2022/08/04 10:22:45;;;;;;;10.45;2.20;;;;;;;25.35;58.95;101222.34;5093270;28;20122;-46
2022/08/04 10:25:27;;;;;;;15.30;2.65;;;;;;;25.04;61.31;101286.41;5076013;28;20396;-44
2022/08/04 10:28:10;;;;;;;9.45;2.53;;;;;;;24.74;62.53;101304.66;5092780;28;20065;-49
2022/08/04 10:30:39;;;;;;;13.23;2.60;;;;;;;24.30;65.74;101323.13;5093647;28;20103;-50
2022/08/04 10:33:36;;;;;;;12.20;3.03;;;;;;;23.90;69.28;101303.69;5093615;28;20073;-45
2022/08/04 10:36:09;;;;;;;16.30;3.53;;;;;;;23.34;72.91;101296.75;5092832;28;20032;-46
2022/08/04 10:39:04;;;;;;;11.45;3.50;;;;;;;23.01;76.44;101285.84;5093324;28;20020;-46
2022/08/04 10:41:38;;;;;;;12.32;3.83;;;;;;;22.81;79.79;101293.16;5074781;28;20036;-45
2022/08/04 10:44:47;;;;;;;9.73;4.03;;;;;;;22.74;76.82;101257.34;5093220;28;20059;-48
2022/08/04 10:47:20;;;;;;;15.02;3.80;;;;;;;22.34;83.97;101250.84;5011454;28;20042;-46
2022/08/04 10:49:53;;;;;;;12.27;4.30;;;;;;;22.14;85.26;101240.59;5084392;28;20061;-49
2022/08/04 10:52:41;;;;;;;11.98;4.38;;;;;;;22.16;83.82;101230.94;5093469;28;20123;-48
2022/08/04 10:55:18;;;;;;;12.52;4.47;;;;;;;22.07;87.49;101217.94;5093364;28;20035;-48
2022/08/04 10:57:58;;;;;;;12.68;5.00;;;;;;;22.04;90.89;101198.72;5093673;28;20110;-49
2022/08/04 11:00:25;;;;;;;14.85;5.10;;;;;;;22.12;91.91;101211.75;5093161;28;20032;-45
2022/08/04 11:03:02;;;;;;;12.57;5.40;;;;;;;22.41;90.09;101217.53;5092411;28;20042;-46
2022/08/04 11:05:34;;;;;;;;;;;;;;;22.67;85.21;101231.16;5093291;28;20371;-45
2022/08/04 11:08:03;;;;;;;13.90;5.07;;;;;;;22.94;88.85;101236.00;5093131;28;19911;-49
2022/08/04 11:10:36;;;;;;;12.45;4.93;;;;;;;22.92;87.14;101249.19;5092267;28;20086;-47
2022/08/04 11:13:09;;;;;;;9.68;4.70;;;;;;;22.84;86.67;101248.44;5093023;28;20036;-44
2022/08/04 11:15:40;;;;;;;13.38;5.35;;;;;;;22.82;87.68;101240.56;5092865;28;20024;-46
2022/08/04 11:18:38;;;;;;;13.70;4.88;;;;;;;22.81;85.23;101232.72;5092330;28;20028;-45
2022/08/04 11:21:14;;;;;;;9.80;4.85;;;;;;;22.77;86.76;101226.63;5092943;28;20036;-49
2022/08/04 11:23:46;;;;;;;9.35;5.38;;;;;;;22.74;87.83;101215.31;5092110;28;20169;-50
2022/08/04 11:26:18;;;;;;;12.45;5.22;;;;;;;22.75;87.06;101223.16;5092808;28;20026;-50
2022/08/04 11:28:58;;;;;;;9.40;5.15;;;;;;;22.90;86.78;101232.56;5092845;28;20052;-46
2022/08/04 11:31:38;;;;;;;11.05;5.03;;;;;;;23.18;86.05;101226.91;5093854;28;20028;-46
2022/08/04 11:34:20;;;;;;;11.88;5.05;;;;;;;24.52;80.39;101226.06;5097107;28;20024;-44
2022/08/04 11:37:08;;;;;;;9.88;4.70;;;;;;;25.45;78.66;101215.94;5096837;28;20045;-44
2022/08/04 11:39:59;;;;;;;10.13;4.20;;;;;;;26.59;72.35;101214.44;5096092;28;20028;-45
2022/08/04 11:42:36;;;;;;;9.07;3.83;;;;;;;28.09;65.28;101217.25;5087497;28;20040;-45
2022/08/04 11:45:14;;;;;;;9.68;3.58;;;;;;;29.58;56.88;101221.84;5096063;28;20073;-45
2022/08/04 11:47:52;;;;;;;8.70;2.70;;;;;;;30.50;52.80;101233.59;5096607;28;20024;-46
2022/08/04 11:50:33;;;;;;;5.72;2.85;;;;;;;31.32;54.50;101223.38;5096795;28;20035;-51
2022/08/04 11:53:00;;;;;;;14.90;3.35;;;;;;;31.47;48.48;101225.22;5095953;28;20035;-44
2022/08/04 11:55:27;;;;;;;7.20;2.70;;;;;;;31.40;49.26;101233.63;5096451;28;20017;-46
2022/08/04 11:57:53;;;;;;;10.07;3.22;;;;;;;32.83;47.80;101233.84;5096733;28;20051;-48
2022/08/04 12:00:21;;;;;;;8.07;2.50;;;;;;;33.03;44.91;101231.81;5095809;28;20052;-46
2022/08/04 12:03:05;;;;;;;10.73;2.90;;;;;;;33.35;45.78;101226.38;5096359;28;20051;-48